sensor_id;sensor_type;location;lat;lon;timestamp;P1;durP1;ratioP1;P2;durP2;ratioP2
3333;SDS011;1679;50.392;8.008;2023-05-19T00:01:10;4.33;;;2.50;;
3333;SDS011;1679;50.392;8.008;2023-05-19T00:03:51;3.23;;;2.50;;
3333;SDS011;1679;50.392;8.008;2023-05-19T00:06:21;3.80;;;2.17;;
3333;SDS011;1679;50.392;8.008;2023-05-19T00:08:49;2.57;;;2.37;;
3333;SDS011;1679;50.392;8.008;2023-05-19T00:11:22;4.03;;;2.63;;
3333;SDS011;1679;50.392;8.008;2023-05-19T00:13:48;3.90;;;3.03;;
3333;SDS011;1679;50.392;8.008;2023-05-19T00:16:15;4.80;;;2.60;;
3333;SDS011;1679;50.392;8.008;2023-05-19T00:18:41;8.07;;;2.30;;
3333;SDS011;1679;50.392;8.008;2023-05-19T00:21:08;4.00;;;2.80;;
3333;SDS011;1679;50.392;8.008;2023-05-19T00:23:34;3.20;;;2.30;;
3333;SDS011;1679;50.392;8.008;2023-05-19T00:26:00;3.40;;;2.97;;
3333;SDS011;1679;50.392;8.008;2023-05-19T00:28:25;3.77;;;2.93;;
3333;SDS011;1679;50.392;8.008;2023-05-19T00:30:51;4.00;;;2.73;;
3333;SDS011;1679;50.392;8.008;2023-05-19T00:33:16;5.73;;;3.03;;
3333;SDS011;1679;50.392;8.008;2023-05-19T00:35:41;2.90;;;2.30;;
3333;SDS011;1679;50.392;8.008;2023-05-19T00:38:07;3.43;;;2.60;;
3333;SDS011;1679;50.392;8.008;2023-05-19T00:40:34;9.53;;;2.50;;
3333;SDS011;1679;50.392;8.008;2023-05-19T00:43:00;3.20;;;2.90;;
3333;SDS011;1679;50.392;8.008;2023-05-19T00:45:26;4.40;;;2.30;;
3333;SDS011;1679;50.392;8.008;2023-05-19T00:47:52;4.33;;;3.20;;
3333;SDS011;1679;50.392;8.008;2023-05-19T00:50:18;2.87;;;2.63;;
3333;SDS011;1679;50.392;8.008;2023-05-19T00:52:43;3.30;;;2.40;;
3333;SDS011;1679;50.392;8.008;2023-05-19T00:55:09;5.00;;;2.30;;
3333;SDS011;1679;50.392;8.008;2023-05-19T00:57:35;9.73;;;2.97;;
3333;SDS011;1679;50.392;8.008;2023-05-19T01:00:01;4.43;;;2.80;;
3333;SDS011;1679;50.392;8.008;2023-05-19T01:02:28;5.37;;;2.60;;
3333;SDS011;1679;50.392;8.008;2023-05-19T01:04:56;3.83;;;2.50;;
3333;SDS011;1679;50.392;8.008;2023-05-19T01:07:22;6.07;;;2.70;;
3333;SDS011;1679;50.392;8.008;2023-05-19T01:09:49;4.43;;;2.60;;
3333;SDS011;1679;50.392;8.008;2023-05-19T01:12:16;5.00;;;2.40;;
3333;SDS011;1679;50.392;8.008;2023-05-19T01:14:42;6.27;;;3.00;;
3333;SDS011;1679;50.392;8.008;2023-05-19T01:22:38;3.23;;;2.43;;
3333;SDS011;1679;50.392;8.008;2023-05-19T01:28:38;3.93;;;3.03;;
3333;SDS011;1679;50.392;8.008;2023-05-19T01:31:23;4.90;;;2.70;;
3333;SDS011;1679;50.392;8.008;2023-05-19T01:33:51;4.03;;;3.07;;
3333;SDS011;1679;50.392;8.008;2023-05-19T01:36:18;4.60;;;2.40;;
3333;SDS011;1679;50.392;8.008;2023-05-19T01:38:47;3.70;;;2.67;;
3333;SDS011;1679;50.392;8.008;2023-05-19T01:41:19;3.70;;;2.57;;
3333;SDS011;1679;50.392;8.008;2023-05-19T01:43:46;3.50;;;3.20;;
3333;SDS011;1679;50.392;8.008;2023-05-19T01:46:12;2.73;;;2.43;;
3333;SDS011;1679;50.392;8.008;2023-05-19T01:48:38;3.93;;;3.10;;
3333;SDS011;1679;50.392;8.008;2023-05-19T01:51:05;5.40;;;2.80;;
3333;SDS011;1679;50.392;8.008;2023-05-19T01:53:31;4.73;;;3.10;;
3333;SDS011;1679;50.392;8.008;2023-05-19T01:55:56;3.73;;;2.90;;
3333;SDS011;1679;50.392;8.008;2023-05-19T02:01:15;7.40;;;3.20;;
3333;SDS011;1679;50.392;8.008;2023-05-19T02:09:59;3.97;;;3.00;;
3333;SDS011;1679;50.392;8.008;2023-05-19T02:12:33;3.10;;;2.80;;
3333;SDS011;1679;50.392;8.008;2023-05-19T02:15:17;4.37;;;3.17;;
3333;SDS011;1679;50.392;8.008;2023-05-19T02:17:52;3.90;;;3.30;;
3333;SDS011;1679;50.392;8.008;2023-05-19T02:20:23;5.87;;;3.30;;
3333;SDS011;1679;50.392;8.008;2023-05-19T02:22:49;7.00;;;2.90;;
3333;SDS011;1679;50.392;8.008;2023-05-19T02:25:15;7.20;;;3.20;;
3333;SDS011;1679;50.392;8.008;2023-05-19T02:27:41;6.53;;;3.20;;
3333;SDS011;1679;50.392;8.008;2023-05-19T02:30:07;4.63;;;3.10;;
3333;SDS011;1679;50.392;8.008;2023-05-19T02:32:34;6.00;;;3.80;;
3333;SDS011;1679;50.392;8.008;2023-05-19T02:35:00;3.77;;;3.10;;
3333;SDS011;1679;50.392;8.008;2023-05-19T02:37:26;4.40;;;3.00;;
3333;SDS011;1679;50.392;8.008;2023-05-19T02:39:53;4.40;;;3.30;;
3333;SDS011;1679;50.392;8.008;2023-05-19T02:42:19;4.60;;;3.33;;
3333;SDS011;1679;50.392;8.008;2023-05-19T02:44:44;8.60;;;3.30;;
3333;SDS011;1679;50.392;8.008;2023-05-19T02:47:10;4.27;;;3.50;;
3333;SDS011;1679;50.392;8.008;2023-05-19T02:49:36;7.33;;;3.70;;
3333;SDS011;1679;50.392;8.008;2023-05-19T02:52:04;3.80;;;3.40;;
3333;SDS011;1679;50.392;8.008;2023-05-19T02:54:30;3.67;;;3.30;;
3333;SDS011;1679;50.392;8.008;2023-05-19T02:56:57;5.10;;;3.67;;
3333;SDS011;1679;50.392;8.008;2023-05-19T02:59:23;3.23;;;2.83;;
3333;SDS011;1679;50.392;8.008;2023-05-19T03:01:49;3.87;;;3.50;;
3333;SDS011;1679;50.392;8.008;2023-05-19T03:04:17;4.03;;;3.63;;
3333;SDS011;1679;50.392;8.008;2023-05-19T03:06:44;5.70;;;4.33;;
3333;SDS011;1679;50.392;8.008;2023-05-19T03:09:10;5.07;;;3.90;;
3333;SDS011;1679;50.392;8.008;2023-05-19T03:11:38;7.50;;;4.20;;
3333;SDS011;1679;50.392;8.008;2023-05-19T03:14:03;7.57;;;3.50;;
3333;SDS011;1679;50.392;8.008;2023-05-19T03:16:29;4.53;;;3.50;;
3333;SDS011;1679;50.392;8.008;2023-05-19T03:18:55;5.50;;;3.20;;
3333;SDS011;1679;50.392;8.008;2023-05-19T03:21:20;4.10;;;3.43;;
3333;SDS011;1679;50.392;8.008;2023-05-19T03:23:46;7.53;;;4.40;;
3333;SDS011;1679;50.392;8.008;2023-05-19T03:26:11;5.10;;;3.87;;
3333;SDS011;1679;50.392;8.008;2023-05-19T03:28:37;5.10;;;3.27;;
3333;SDS011;1679;50.392;8.008;2023-05-19T03:31:03;3.80;;;3.50;;
3333;SDS011;1679;50.392;8.008;2023-05-19T03:33:28;3.73;;;3.43;;
3333;SDS011;1679;50.392;8.008;2023-05-19T03:35:57;5.57;;;3.80;;
3333;SDS011;1679;50.392;8.008;2023-05-19T03:38:23;5.33;;;3.40;;
3333;SDS011;1679;50.392;8.008;2023-05-19T03:40:48;5.30;;;3.80;;
3333;SDS011;1679;50.392;8.008;2023-05-19T03:43:14;5.83;;;3.70;;
3333;SDS011;1679;50.392;8.008;2023-05-19T03:45:40;5.37;;;4.07;;
3333;SDS011;1679;50.392;8.008;2023-05-19T03:48:06;3.93;;;3.43;;
3333;SDS011;1679;50.392;8.008;2023-05-19T03:50:31;4.33;;;4.07;;
3333;SDS011;1679;50.392;8.008;2023-05-19T03:52:57;5.00;;;4.03;;
3333;SDS011;1679;50.392;8.008;2023-05-19T03:55:23;4.23;;;3.83;;
3333;SDS011;1679;50.392;8.008;2023-05-19T03:57:50;5.23;;;3.83;;
3333;SDS011;1679;50.392;8.008;2023-05-19T04:00:16;3.93;;;3.57;;
3333;SDS011;1679;50.392;8.008;2023-05-19T04:02:42;5.50;;;3.70;;
3333;SDS011;1679;50.392;8.008;2023-05-19T04:05:09;4.93;;;3.93;;
3333;SDS011;1679;50.392;8.008;2023-05-19T04:07:35;4.67;;;3.70;;
3333;SDS011;1679;50.392;8.008;2023-05-19T04:10:03;4.50;;;3.93;;
3333;SDS011;1679;50.392;8.008;2023-05-19T04:12:29;6.50;;;3.80;;
3333;SDS011;1679;50.392;8.008;2023-05-19T04:14:54;4.20;;;3.93;;
3333;SDS011;1679;50.392;8.008;2023-05-19T04:17:20;3.97;;;3.67;;
3333;SDS011;1679;50.392;8.008;2023-05-19T04:19:47;9.47;;;4.10;;
3333;SDS011;1679;50.392;8.008;2023-05-19T04:22:13;5.03;;;3.87;;
3333;SDS011;1679;50.392;8.008;2023-05-19T04:24:39;3.83;;;3.53;;
3333;SDS011;1679;50.392;8.008;2023-05-19T04:27:05;3.93;;;3.53;;
3333;SDS011;1679;50.392;8.008;2023-05-19T04:29:35;4.03;;;3.53;;
3333;SDS011;1679;50.392;8.008;2023-05-19T04:32:03;5.23;;;3.97;;
3333;SDS011;1679;50.392;8.008;2023-05-19T04:34:35;7.13;;;3.97;;
3333;SDS011;1679;50.392;8.008;2023-05-19T04:37:04;4.37;;;3.70;;
3333;SDS011;1679;50.392;8.008;2023-05-19T04:39:31;4.40;;;3.53;;
3333;SDS011;1679;50.392;8.008;2023-05-19T04:41:56;5.30;;;3.63;;
3333;SDS011;1679;50.392;8.008;2023-05-19T04:44:23;5.50;;;3.53;;
3333;SDS011;1679;50.392;8.008;2023-05-19T04:46:50;7.33;;;3.90;;
3333;SDS011;1679;50.392;8.008;2023-05-19T04:49:18;5.77;;;3.37;;
3333;SDS011;1679;50.392;8.008;2023-05-19T04:51:44;5.60;;;3.67;;
3333;SDS011;1679;50.392;8.008;2023-05-19T04:54:10;9.30;;;4.50;;
3333;SDS011;1679;50.392;8.008;2023-05-19T04:56:36;4.00;;;3.60;;
3333;SDS011;1679;50.392;8.008;2023-05-19T04:59:01;4.33;;;3.57;;
3333;SDS011;1679;50.392;8.008;2023-05-19T05:01:27;4.63;;;4.23;;
3333;SDS011;1679;50.392;8.008;2023-05-19T05:03:55;6.23;;;3.40;;
3333;SDS011;1679;50.392;8.008;2023-05-19T05:06:22;4.43;;;2.83;;
3333;SDS011;1679;50.392;8.008;2023-05-19T05:08:48;3.77;;;3.47;;
3333;SDS011;1679;50.392;8.008;2023-05-19T05:11:14;4.63;;;3.00;;
3333;SDS011;1679;50.392;8.008;2023-05-19T05:13:40;6.50;;;3.53;;
3333;SDS011;1679;50.392;8.008;2023-05-19T05:16:06;4.00;;;3.00;;
3333;SDS011;1679;50.392;8.008;2023-05-19T05:18:33;5.23;;;3.13;;
3333;SDS011;1679;50.392;8.008;2023-05-19T05:20:59;4.00;;;3.70;;
3333;SDS011;1679;50.392;8.008;2023-05-19T05:23:26;3.73;;;3.23;;
3333;SDS011;1679;50.392;8.008;2023-05-19T05:25:52;3.43;;;3.10;;
3333;SDS011;1679;50.392;8.008;2023-05-19T05:28:18;3.50;;;2.97;;
3333;SDS011;1679;50.392;8.008;2023-05-19T05:30:45;6.47;;;3.43;;
3333;SDS011;1679;50.392;8.008;2023-05-19T05:33:10;3.70;;;3.40;;
3333;SDS011;1679;50.392;8.008;2023-05-19T05:35:36;3.30;;;3.00;;
3333;SDS011;1679;50.392;8.008;2023-05-19T05:38:02;6.67;;;3.00;;
3333;SDS011;1679;50.392;8.008;2023-05-19T05:40:27;5.50;;;3.33;;
3333;SDS011;1679;50.392;8.008;2023-05-19T05:42:55;2.77;;;2.57;;
3333;SDS011;1679;50.392;8.008;2023-05-19T05:45:23;6.93;;;3.20;;
3333;SDS011;1679;50.392;8.008;2023-05-19T05:47:49;4.37;;;3.00;;
3333;SDS011;1679;50.392;8.008;2023-05-19T05:50:15;4.10;;;3.77;;
3333;SDS011;1679;50.392;8.008;2023-05-19T05:52:42;5.10;;;3.23;;
3333;SDS011;1679;50.392;8.008;2023-05-19T05:55:11;5.70;;;3.03;;
3333;SDS011;1679;50.392;8.008;2023-05-19T05:57:37;6.03;;;3.67;;
3333;SDS011;1679;50.392;8.008;2023-05-19T06:00:06;4.63;;;3.03;;
3333;SDS011;1679;50.392;8.008;2023-05-19T06:02:40;5.47;;;3.37;;
3333;SDS011;1679;50.392;8.008;2023-05-19T06:05:07;6.07;;;3.00;;
3333;SDS011;1679;50.392;8.008;2023-05-19T06:07:36;5.30;;;3.50;;
3333;SDS011;1679;50.392;8.008;2023-05-19T06:10:05;4.30;;;3.60;;
3333;SDS011;1679;50.392;8.008;2023-05-19T06:12:31;7.10;;;3.13;;
3333;SDS011;1679;50.392;8.008;2023-05-19T06:14:57;4.77;;;2.70;;
3333;SDS011;1679;50.392;8.008;2023-05-19T06:17:25;5.63;;;3.30;;
3333;SDS011;1679;50.392;8.008;2023-05-19T06:19:50;4.77;;;3.27;;
3333;SDS011;1679;50.392;8.008;2023-05-19T06:22:16;3.60;;;3.33;;
3333;SDS011;1679;50.392;8.008;2023-05-19T06:24:42;6.50;;;3.13;;
3333;SDS011;1679;50.392;8.008;2023-05-19T06:27:08;4.27;;;3.57;;
3333;SDS011;1679;50.392;8.008;2023-05-19T06:29:34;7.90;;;3.30;;
3333;SDS011;1679;50.392;8.008;2023-05-19T06:32:00;4.33;;;3.40;;
3333;SDS011;1679;50.392;8.008;2023-05-19T06:34:27;7.10;;;5.00;;
3333;SDS011;1679;50.392;8.008;2023-05-19T06:36:52;4.13;;;3.53;;
3333;SDS011;1679;50.392;8.008;2023-05-19T06:39:19;3.80;;;3.43;;
3333;SDS011;1679;50.392;8.008;2023-05-19T06:41:45;5.73;;;3.67;;
3333;SDS011;1679;50.392;8.008;2023-05-19T06:44:11;5.00;;;3.17;;
3333;SDS011;1679;50.392;8.008;2023-05-19T06:46:37;6.00;;;4.13;;
3333;SDS011;1679;50.392;8.008;2023-05-19T06:49:04;7.03;;;3.67;;
3333;SDS011;1679;50.392;8.008;2023-05-19T06:51:29;4.00;;;2.93;;
3333;SDS011;1679;50.392;8.008;2023-05-19T06:53:55;8.83;;;3.60;;
3333;SDS011;1679;50.392;8.008;2023-05-19T06:56:21;6.57;;;3.63;;
3333;SDS011;1679;50.392;8.008;2023-05-19T06:58:47;5.57;;;3.80;;
3333;SDS011;1679;50.392;8.008;2023-05-19T07:01:12;4.60;;;3.50;;
3333;SDS011;1679;50.392;8.008;2023-05-19T07:03:38;3.67;;;3.37;;
3333;SDS011;1679;50.392;8.008;2023-05-19T07:06:03;7.90;;;3.80;;
3333;SDS011;1679;50.392;8.008;2023-05-19T07:08:29;9.10;;;3.00;;
3333;SDS011;1679;50.392;8.008;2023-05-19T07:10:54;3.60;;;3.20;;
3333;SDS011;1679;50.392;8.008;2023-05-19T07:13:20;4.20;;;3.33;;
3333;SDS011;1679;50.392;8.008;2023-05-19T07:15:46;4.97;;;2.90;;
3333;SDS011;1679;50.392;8.008;2023-05-19T07:18:13;5.10;;;3.03;;
3333;SDS011;1679;50.392;8.008;2023-05-19T07:20:38;6.50;;;3.13;;
3333;SDS011;1679;50.392;8.008;2023-05-19T07:23:04;3.97;;;3.20;;
3333;SDS011;1679;50.392;8.008;2023-05-19T07:25:31;2.90;;;2.60;;
3333;SDS011;1679;50.392;8.008;2023-05-19T07:27:58;7.60;;;2.60;;
3333;SDS011;1679;50.392;8.008;2023-05-19T07:30:25;3.10;;;2.63;;
3333;SDS011;1679;50.392;8.008;2023-05-19T07:32:51;2.70;;;2.20;;
3333;SDS011;1679;50.392;8.008;2023-05-19T07:35:18;7.80;;;3.00;;
3333;SDS011;1679;50.392;8.008;2023-05-19T07:37:46;3.60;;;2.50;;
3333;SDS011;1679;50.392;8.008;2023-05-19T07:40:12;2.90;;;2.60;;
3333;SDS011;1679;50.392;8.008;2023-05-19T07:42:38;4.13;;;2.30;;
3333;SDS011;1679;50.392;8.008;2023-05-19T07:45:04;5.17;;;3.33;;
3333;SDS011;1679;50.392;8.008;2023-05-19T07:47:30;2.50;;;2.30;;
3333;SDS011;1679;50.392;8.008;2023-05-19T07:49:56;6.40;;;2.80;;
3333;SDS011;1679;50.392;8.008;2023-05-19T07:52:23;13.10;;;5.03;;
3333;SDS011;1679;50.392;8.008;2023-05-19T07:54:50;2.57;;;2.30;;
3333;SDS011;1679;50.392;8.008;2023-05-19T07:57:15;3.10;;;2.47;;
3333;SDS011;1679;50.392;8.008;2023-05-19T07:59:42;6.90;;;2.23;;
3333;SDS011;1679;50.392;8.008;2023-05-19T08:02:08;4.53;;;2.63;;
3333;SDS011;1679;50.392;8.008;2023-05-19T08:04:35;8.70;;;2.80;;
3333;SDS011;1679;50.392;8.008;2023-05-19T08:07:00;5.97;;;2.30;;
3333;SDS011;1679;50.392;8.008;2023-05-19T08:09:26;3.50;;;2.47;;
3333;SDS011;1679;50.392;8.008;2023-05-19T08:11:52;3.10;;;2.33;;
3333;SDS011;1679;50.392;8.008;2023-05-19T08:14:18;6.80;;;2.97;;
3333;SDS011;1679;50.392;8.008;2023-05-19T08:16:46;9.30;;;2.30;;
3333;SDS011;1679;50.392;8.008;2023-05-19T08:19:12;3.67;;;2.10;;
3333;SDS011;1679;50.392;8.008;2023-05-19T08:21:39;5.03;;;2.20;;
3333;SDS011;1679;50.392;8.008;2023-05-19T08:24:06;4.37;;;2.60;;
3333;SDS011;1679;50.392;8.008;2023-05-19T08:26:31;2.93;;;2.60;;
3333;SDS011;1679;50.392;8.008;2023-05-19T08:28:57;3.40;;;2.10;;
3333;SDS011;1679;50.392;8.008;2023-05-19T08:31:22;3.70;;;2.30;;
3333;SDS011;1679;50.392;8.008;2023-05-19T08:33:48;5.00;;;2.20;;
3333;SDS011;1679;50.392;8.008;2023-05-19T08:36:14;5.10;;;2.73;;
3333;SDS011;1679;50.392;8.008;2023-05-19T08:38:40;2.80;;;2.10;;
3333;SDS011;1679;50.392;8.008;2023-05-19T08:41:06;5.67;;;2.70;;
3333;SDS011;1679;50.392;8.008;2023-05-19T08:43:32;2.90;;;2.10;;
3333;SDS011;1679;50.392;8.008;2023-05-19T08:45:59;6.50;;;2.87;;
3333;SDS011;1679;50.392;8.008;2023-05-19T08:48:28;3.70;;;2.00;;
3333;SDS011;1679;50.392;8.008;2023-05-19T08:51:07;3.97;;;2.53;;
3333;SDS011;1679;50.392;8.008;2023-05-19T08:53:41;5.13;;;2.10;;
3333;SDS011;1679;50.392;8.008;2023-05-19T08:56:14;2.83;;;2.00;;
3333;SDS011;1679;50.392;8.008;2023-05-19T08:58:52;4.87;;;2.20;;
3333;SDS011;1679;50.392;8.008;2023-05-19T09:01:19;4.40;;;2.30;;
3333;SDS011;1679;50.392;8.008;2023-05-19T09:03:46;2.00;;;1.80;;
3333;SDS011;1679;50.392;8.008;2023-05-19T09:06:13;2.73;;;2.00;;
3333;SDS011;1679;50.392;8.008;2023-05-19T09:08:41;3.03;;;2.33;;
3333;SDS011;1679;50.392;8.008;2023-05-19T09:11:07;5.20;;;2.37;;
3333;SDS011;1679;50.392;8.008;2023-05-19T09:13:33;8.03;;;1.90;;
3333;SDS011;1679;50.392;8.008;2023-05-19T09:15:59;5.90;;;2.17;;
3333;SDS011;1679;50.392;8.008;2023-05-19T09:18:27;6.27;;;3.10;;
3333;SDS011;1679;50.392;8.008;2023-05-19T09:20:56;8.00;;;2.73;;
3333;SDS011;1679;50.392;8.008;2023-05-19T09:23:29;5.47;;;1.97;;
3333;SDS011;1679;50.392;8.008;2023-05-19T09:26:00;5.10;;;2.17;;
3333;SDS011;1679;50.392;8.008;2023-05-19T09:28:29;3.70;;;2.60;;
3333;SDS011;1679;50.392;8.008;2023-05-19T09:33:27;2.60;;;2.40;;
3333;SDS011;1679;50.392;8.008;2023-05-19T09:35:53;2.40;;;2.17;;
3333;SDS011;1679;50.392;8.008;2023-05-19T09:38:21;3.40;;;2.40;;
3333;SDS011;1679;50.392;8.008;2023-05-19T09:40:51;4.13;;;2.30;;
3333;SDS011;1679;50.392;8.008;2023-05-19T09:43:17;6.00;;;2.10;;
3333;SDS011;1679;50.392;8.008;2023-05-19T09:45:43;2.43;;;2.10;;
3333;SDS011;1679;50.392;8.008;2023-05-19T09:48:08;5.10;;;1.70;;
3333;SDS011;1679;50.392;8.008;2023-05-19T09:50:34;5.43;;;2.13;;
3333;SDS011;1679;50.392;8.008;2023-05-19T09:52:59;3.60;;;2.10;;
3333;SDS011;1679;50.392;8.008;2023-05-19T09:55:27;9.70;;;2.40;;
3333;SDS011;1679;50.392;8.008;2023-05-19T09:57:53;5.20;;;2.70;;
3333;SDS011;1679;50.392;8.008;2023-05-19T10:00:23;6.20;;;2.47;;
3333;SDS011;1679;50.392;8.008;2023-05-19T10:02:50;4.63;;;2.70;;
3333;SDS011;1679;50.392;8.008;2023-05-19T10:05:18;4.67;;;2.20;;
3333;SDS011;1679;50.392;8.008;2023-05-19T10:07:49;5.27;;;2.03;;
3333;SDS011;1679;50.392;8.008;2023-05-19T10:10:16;4.93;;;2.10;;
3333;SDS011;1679;50.392;8.008;2023-05-19T10:12:44;4.80;;;2.67;;
3333;SDS011;1679;50.392;8.008;2023-05-19T10:15:11;5.30;;;2.10;;
3333;SDS011;1679;50.392;8.008;2023-05-19T10:17:40;5.43;;;2.30;;
3333;SDS011;1679;50.392;8.008;2023-05-19T10:20:14;3.27;;;2.40;;
3333;SDS011;1679;50.392;8.008;2023-05-19T10:22:41;3.90;;;2.23;;
3333;SDS011;1679;50.392;8.008;2023-05-19T10:25:10;5.03;;;1.70;;
3333;SDS011;1679;50.392;8.008;2023-05-19T10:27:56;3.00;;;1.63;;
3333;SDS011;1679;50.392;8.008;2023-05-19T10:30:31;2.80;;;2.10;;
3333;SDS011;1679;50.392;8.008;2023-05-19T10:32:59;2.60;;;1.70;;
3333;SDS011;1679;50.392;8.008;2023-05-19T10:38:15;2.87;;;1.80;;
3333;SDS011;1679;50.392;8.008;2023-05-19T10:43:43;3.43;;;2.00;;
3333;SDS011;1679;50.392;8.008;2023-05-19T10:46:30;5.90;;;1.87;;
3333;SDS011;1679;50.392;8.008;2023-05-19T10:48:55;4.63;;;2.27;;
3333;SDS011;1679;50.392;8.008;2023-05-19T10:51:27;4.40;;;2.20;;
3333;SDS011;1679;50.392;8.008;2023-05-19T10:53:56;2.90;;;1.60;;
3333;SDS011;1679;50.392;8.008;2023-05-19T10:56:26;2.37;;;1.80;;
3333;SDS011;1679;50.392;8.008;2023-05-19T10:58:58;5.00;;;2.10;;
3333;SDS011;1679;50.392;8.008;2023-05-19T11:01:34;4.97;;;2.20;;
3333;SDS011;1679;50.392;8.008;2023-05-19T11:04:08;2.83;;;1.80;;
3333;SDS011;1679;50.392;8.008;2023-05-19T11:06:36;2.97;;;1.70;;
3333;SDS011;1679;50.392;8.008;2023-05-19T11:11:50;8.73;;;2.13;;
3333;SDS011;1679;50.392;8.008;2023-05-19T11:14:17;2.53;;;1.90;;
3333;SDS011;1679;50.392;8.008;2023-05-19T11:16:46;3.17;;;1.70;;
3333;SDS011;1679;50.392;8.008;2023-05-19T11:19:17;2.50;;;1.70;;
3333;SDS011;1679;50.392;8.008;2023-05-19T11:21:53;2.10;;;1.90;;
3333;SDS011;1679;50.392;8.008;2023-05-19T11:24:37;3.73;;;1.90;;
3333;SDS011;1679;50.392;8.008;2023-05-19T11:27:30;2.50;;;2.00;;
3333;SDS011;1679;50.392;8.008;2023-05-19T11:30:00;4.07;;;1.93;;
3333;SDS011;1679;50.392;8.008;2023-05-19T11:32:30;2.07;;;1.50;;
3333;SDS011;1679;50.392;8.008;2023-05-19T11:35:03;1.70;;;1.60;;
3333;SDS011;1679;50.392;8.008;2023-05-19T11:37:32;3.73;;;1.93;;
3333;SDS011;1679;50.392;8.008;2023-05-19T11:40:02;3.43;;;2.60;;
3333;SDS011;1679;50.392;8.008;2023-05-19T11:42:33;3.30;;;1.97;;
3333;SDS011;1679;50.392;8.008;2023-05-19T11:45:00;3.87;;;2.17;;
3333;SDS011;1679;50.392;8.008;2023-05-19T11:47:25;1.93;;;1.63;;
3333;SDS011;1679;50.392;8.008;2023-05-19T11:49:52;3.87;;;2.53;;
3333;SDS011;1679;50.392;8.008;2023-05-19T11:52:22;2.70;;;2.17;;
3333;SDS011;1679;50.392;8.008;2023-05-19T11:54:49;1.87;;;1.57;;
3333;SDS011;1679;50.392;8.008;2023-05-19T11:57:14;6.07;;;2.00;;
3333;SDS011;1679;50.392;8.008;2023-05-19T11:59:41;2.50;;;2.10;;
3333;SDS011;1679;50.392;8.008;2023-05-19T12:02:20;2.87;;;1.90;;
3333;SDS011;1679;50.392;8.008;2023-05-19T12:04:48;4.27;;;1.80;;
3333;SDS011;1679;50.392;8.008;2023-05-19T12:07:15;3.87;;;1.80;;
3333;SDS011;1679;50.392;8.008;2023-05-19T12:09:42;1.90;;;1.80;;
3333;SDS011;1679;50.392;8.008;2023-05-19T12:12:14;2.43;;;2.00;;
3333;SDS011;1679;50.392;8.008;2023-05-19T12:14:40;3.03;;;2.10;;
3333;SDS011;1679;50.392;8.008;2023-05-19T12:17:13;6.20;;;2.37;;
3333;SDS011;1679;50.392;8.008;2023-05-19T12:19:44;1.60;;;1.50;;
3333;SDS011;1679;50.392;8.008;2023-05-19T12:22:10;1.70;;;1.60;;
3333;SDS011;1679;50.392;8.008;2023-05-19T12:24:39;3.33;;;1.90;;
3333;SDS011;1679;50.392;8.008;2023-05-19T12:27:09;1.97;;;1.70;;
3333;SDS011;1679;50.392;8.008;2023-05-19T12:29:39;2.40;;;2.07;;
3333;SDS011;1679;50.392;8.008;2023-05-19T12:32:06;2.90;;;2.37;;
3333;SDS011;1679;50.392;8.008;2023-05-19T12:34:36;3.80;;;1.87;;
3333;SDS011;1679;50.392;8.008;2023-05-19T12:37:03;3.63;;;2.30;;
3333;SDS011;1679;50.392;8.008;2023-05-19T12:39:29;4.57;;;1.93;;
3333;SDS011;1679;50.392;8.008;2023-05-19T12:42:02;2.37;;;1.73;;
3333;SDS011;1679;50.392;8.008;2023-05-19T12:44:35;3.30;;;2.00;;
3333;SDS011;1679;50.392;8.008;2023-05-19T12:47:03;1.87;;;1.70;;
3333;SDS011;1679;50.392;8.008;2023-05-19T12:49:29;3.00;;;1.93;;
3333;SDS011;1679;50.392;8.008;2023-05-19T12:51:55;2.77;;;1.63;;
3333;SDS011;1679;50.392;8.008;2023-05-19T12:54:20;5.60;;;2.07;;
3333;SDS011;1679;50.392;8.008;2023-05-19T12:56:52;4.43;;;2.30;;
3333;SDS011;1679;50.392;8.008;2023-05-19T12:59:24;3.50;;;2.33;;
3333;SDS011;1679;50.392;8.008;2023-05-19T13:01:56;4.60;;;2.40;;
3333;SDS011;1679;50.392;8.008;2023-05-19T13:04:26;3.50;;;2.07;;
3333;SDS011;1679;50.392;8.008;2023-05-19T13:06:52;2.30;;;2.10;;
3333;SDS011;1679;50.392;8.008;2023-05-19T13:09:19;3.20;;;2.10;;
3333;SDS011;1679;50.392;8.008;2023-05-19T13:11:45;5.33;;;2.70;;
3333;SDS011;1679;50.392;8.008;2023-05-19T13:14:18;5.03;;;1.90;;
3333;SDS011;1679;50.392;8.008;2023-05-19T13:16:44;2.17;;;2.07;;
3333;SDS011;1679;50.392;8.008;2023-05-19T13:19:11;2.23;;;2.03;;
3333;SDS011;1679;50.392;8.008;2023-05-19T13:21:42;2.70;;;2.00;;
3333;SDS011;1679;50.392;8.008;2023-05-19T13:24:08;3.67;;;2.30;;
3333;SDS011;1679;50.392;8.008;2023-05-19T13:26:33;12.23;;;2.20;;
3333;SDS011;1679;50.392;8.008;2023-05-19T13:28:59;2.20;;;2.03;;
3333;SDS011;1679;50.392;8.008;2023-05-19T13:31:26;3.93;;;2.30;;
3333;SDS011;1679;50.392;8.008;2023-05-19T13:33:51;2.80;;;2.27;;
3333;SDS011;1679;50.392;8.008;2023-05-19T13:36:18;4.67;;;2.30;;
3333;SDS011;1679;50.392;8.008;2023-05-19T13:38:43;2.77;;;2.13;;
3333;SDS011;1679;50.392;8.008;2023-05-19T13:41:09;3.77;;;2.20;;
3333;SDS011;1679;50.392;8.008;2023-05-19T13:43:34;3.93;;;1.90;;
3333;SDS011;1679;50.392;8.008;2023-05-19T13:46:00;3.30;;;2.67;;
3333;SDS011;1679;50.392;8.008;2023-05-19T13:48:25;2.57;;;1.80;;
3333;SDS011;1679;50.392;8.008;2023-05-19T13:50:51;3.63;;;1.97;;
3333;SDS011;1679;50.392;8.008;2023-05-19T13:53:19;2.10;;;1.70;;
3333;SDS011;1679;50.392;8.008;2023-05-19T13:55:45;1.73;;;1.60;;
3333;SDS011;1679;50.392;8.008;2023-05-19T13:58:12;2.27;;;2.07;;
3333;SDS011;1679;50.392;8.008;2023-05-19T14:00:39;4.23;;;2.20;;
3333;SDS011;1679;50.392;8.008;2023-05-19T14:03:05;2.13;;;1.93;;
3333;SDS011;1679;50.392;8.008;2023-05-19T14:05:31;2.13;;;1.93;;
3333;SDS011;1679;50.392;8.008;2023-05-19T14:07:56;4.17;;;1.90;;
3333;SDS011;1679;50.392;8.008;2023-05-19T14:10:24;4.63;;;2.33;;
3333;SDS011;1679;50.392;8.008;2023-05-19T14:12:50;3.93;;;2.27;;
3333;SDS011;1679;50.392;8.008;2023-05-19T14:15:18;4.03;;;2.03;;
3333;SDS011;1679;50.392;8.008;2023-05-19T14:17:44;2.10;;;1.90;;
3333;SDS011;1679;50.392;8.008;2023-05-19T14:20:09;5.23;;;2.20;;
3333;SDS011;1679;50.392;8.008;2023-05-19T14:22:35;1.87;;;1.77;;
3333;SDS011;1679;50.392;8.008;2023-05-19T14:25:01;2.30;;;1.87;;
3333;SDS011;1679;50.392;8.008;2023-05-19T14:27:26;1.60;;;1.50;;
3333;SDS011;1679;50.392;8.008;2023-05-19T14:29:52;1.80;;;1.70;;
3333;SDS011;1679;50.392;8.008;2023-05-19T14:32:17;3.17;;;2.10;;
3333;SDS011;1679;50.392;8.008;2023-05-19T14:34:43;2.20;;;2.00;;
3333;SDS011;1679;50.392;8.008;2023-05-19T14:37:08;4.70;;;2.23;;
3333;SDS011;1679;50.392;8.008;2023-05-19T14:39:34;5.50;;;2.17;;
3333;SDS011;1679;50.392;8.008;2023-05-19T14:42:00;2.57;;;1.90;;
3333;SDS011;1679;50.392;8.008;2023-05-19T14:44:29;4.43;;;2.13;;
3333;SDS011;1679;50.392;8.008;2023-05-19T14:46:58;1.70;;;1.60;;
3333;SDS011;1679;50.392;8.008;2023-05-19T14:49:25;2.37;;;1.83;;
3333;SDS011;1679;50.392;8.008;2023-05-19T14:51:51;2.27;;;1.70;;
3333;SDS011;1679;50.392;8.008;2023-05-19T14:54:16;3.00;;;1.90;;
3333;SDS011;1679;50.392;8.008;2023-05-19T14:56:42;5.30;;;2.40;;
3333;SDS011;1679;50.392;8.008;2023-05-19T14:59:07;3.10;;;2.20;;
3333;SDS011;1679;50.392;8.008;2023-05-19T15:01:34;1.83;;;1.73;;
3333;SDS011;1679;50.392;8.008;2023-05-19T15:04:01;3.67;;;2.10;;
3333;SDS011;1679;50.392;8.008;2023-05-19T15:06:26;3.17;;;1.93;;
3333;SDS011;1679;50.392;8.008;2023-05-19T15:08:52;2.40;;;2.20;;
3333;SDS011;1679;50.392;8.008;2023-05-19T15:11:18;1.77;;;1.67;;
3333;SDS011;1679;50.392;8.008;2023-05-19T15:13:46;4.27;;;2.40;;
3333;SDS011;1679;50.392;8.008;2023-05-19T15:16:13;3.70;;;2.10;;
3333;SDS011;1679;50.392;8.008;2023-05-19T15:18:38;2.40;;;2.07;;
3333;SDS011;1679;50.392;8.008;2023-05-19T15:21:05;2.30;;;1.83;;
3333;SDS011;1679;50.392;8.008;2023-05-19T15:23:31;3.53;;;2.00;;
3333;SDS011;1679;50.392;8.008;2023-05-19T15:25:57;2.40;;;2.20;;
3333;SDS011;1679;50.392;8.008;2023-05-19T15:28:23;2.07;;;1.70;;
3333;SDS011;1679;50.392;8.008;2023-05-19T15:30:49;2.27;;;2.07;;
3333;SDS011;1679;50.392;8.008;2023-05-19T15:33:15;2.43;;;2.20;;
3333;SDS011;1679;50.392;8.008;2023-05-19T15:35:41;4.33;;;2.10;;
3333;SDS011;1679;50.392;8.008;2023-05-19T15:38:06;2.57;;;1.63;;
3333;SDS011;1679;50.392;8.008;2023-05-19T15:40:32;4.27;;;2.00;;
3333;SDS011;1679;50.392;8.008;2023-05-19T15:42:58;3.20;;;2.47;;
3333;SDS011;1679;50.392;8.008;2023-05-19T15:45:25;2.30;;;1.93;;